Terminal Aerodrome Forecast
Issued by NWS Jacksonville, FL

Home | Current Version | Previous Version | Text Only | Print | Product List | Glossary On
Versions: 1 2 3 4 5 6 7 8 9 10 11 12 13 14 15
088
FTUS42 KJAX 182323
TAFSSI
TAF
KSSI 182323Z 1900/1924 18009KT P6SM FEW250
     FM190400 21009KT P6SM SCT040 SCT250 WS015/24040KT
     FM191000 26012G20KT P6SM VCSH SCT010 BKN020 PROB30 1910/1914
      5SM SHRA BR BKN015
     FM191400 32012G20KT P6SM SCT050 BKN090 OVC120
     FM191600 30010KT P6SM FEW120 SCT250=

USA.gov is the U.S. government's official web portal to all federal, state and local government web resources and services.